sensor_id;sensor_type;location;lat;lon;timestamp;temperature;humidity
45409;DHT22;31162;51.076;3.784;2024-03-07T00:01:27;5.80;99.90
45409;DHT22;31162;51.076;3.784;2024-03-07T00:03:53;5.70;99.90
45409;DHT22;31162;51.076;3.784;2024-03-07T00:06:18;5.60;99.90
45409;DHT22;31162;51.076;3.784;2024-03-07T00:08:46;5.70;99.90
45409;DHT22;31162;51.076;3.784;2024-03-07T00:11:12;5.60;99.90
45409;DHT22;31162;51.076;3.784;2024-03-07T00:13:37;5.60;99.90
45409;DHT22;31162;51.076;3.784;2024-03-07T00:16:03;5.70;99.90
45409;DHT22;31162;51.076;3.784;2024-03-07T00:18:29;5.90;99.90
45409;DHT22;31162;51.076;3.784;2024-03-07T00:20:55;6.00;99.90
45409;DHT22;31162;51.076;3.784;2024-03-07T00:23:21;6.00;99.90
45409;DHT22;31162;51.076;3.784;2024-03-07T00:25:46;5.70;99.90
45409;DHT22;31162;51.076;3.784;2024-03-07T00:28:16;5.60;99.90
45409;DHT22;31162;51.076;3.784;2024-03-07T00:30:43;5.50;99.90
45409;DHT22;31162;51.076;3.784;2024-03-07T00:33:11;5.40;99.90
45409;DHT22;31162;51.076;3.784;2024-03-07T00:35:37;5.30;99.90
45409;DHT22;31162;51.076;3.784;2024-03-07T00:38:03;5.30;99.90
45409;DHT22;31162;51.076;3.784;2024-03-07T00:40:29;5.20;99.90
45409;DHT22;31162;51.076;3.784;2024-03-07T00:42:55;5.20;99.90
45409;DHT22;31162;51.076;3.784;2024-03-07T00:45:20;5.10;99.90
45409;DHT22;31162;51.076;3.784;2024-03-07T00:47:46;5.30;99.90
45409;DHT22;31162;51.076;3.784;2024-03-07T00:50:13;5.50;99.90
45409;DHT22;31162;51.076;3.784;2024-03-07T00:52:40;5.50;99.90
45409;DHT22;31162;51.076;3.784;2024-03-07T00:55:06;5.30;99.90
45409;DHT22;31162;51.076;3.784;2024-03-07T00:57:34;5.40;99.90
45409;DHT22;31162;51.076;3.784;2024-03-07T01:00:01;5.50;99.90
45409;DHT22;31162;51.076;3.784;2024-03-07T01:02:26;5.40;99.90
45409;DHT22;31162;51.076;3.784;2024-03-07T01:04:52;5.20;99.90
45409;DHT22;31162;51.076;3.784;2024-03-07T01:07:19;5.10;99.90
45409;DHT22;31162;51.076;3.784;2024-03-07T01:09:44;5.00;99.90
45409;DHT22;31162;51.076;3.784;2024-03-07T01:12:10;5.00;99.90
45409;DHT22;31162;51.076;3.784;2024-03-07T01:14:36;4.80;99.90
45409;DHT22;31162;51.076;3.784;2024-03-07T01:17:02;4.80;99.90
45409;DHT22;31162;51.076;3.784;2024-03-07T01:19:27;4.80;99.90
45409;DHT22;31162;51.076;3.784;2024-03-07T01:21:53;4.90;99.90
45409;DHT22;31162;51.076;3.784;2024-03-07T01:24:19;4.80;99.90
45409;DHT22;31162;51.076;3.784;2024-03-07T01:26:46;4.80;99.90
45409;DHT22;31162;51.076;3.784;2024-03-07T01:29:11;4.80;99.90
45409;DHT22;31162;51.076;3.784;2024-03-07T01:31:37;4.90;99.90
45409;DHT22;31162;51.076;3.784;2024-03-07T01:34:03;5.10;99.90
45409;DHT22;31162;51.076;3.784;2024-03-07T01:36:28;5.20;99.90
45409;DHT22;31162;51.076;3.784;2024-03-07T01:38:55;5.10;99.90
45409;DHT22;31162;51.076;3.784;2024-03-07T01:41:21;5.10;99.90
45409;DHT22;31162;51.076;3.784;2024-03-07T01:43:46;4.90;99.90
45409;DHT22;31162;51.076;3.784;2024-03-07T01:46:12;4.80;99.90
45409;DHT22;31162;51.076;3.784;2024-03-07T01:48:39;4.80;99.90
45409;DHT22;31162;51.076;3.784;2024-03-07T01:51:06;5.00;99.90
45409;DHT22;31162;51.076;3.784;2024-03-07T01:53:33;5.10;99.90
45409;DHT22;31162;51.076;3.784;2024-03-07T01:55:59;5.20;99.90
45409;DHT22;31162;51.076;3.784;2024-03-07T01:58:25;5.30;99.90
45409;DHT22;31162;51.076;3.784;2024-03-07T02:00:51;5.10;99.90
45409;DHT22;31162;51.076;3.784;2024-03-07T02:03:17;4.80;99.90
45409;DHT22;31162;51.076;3.784;2024-03-07T02:05:43;4.70;99.90
45409;DHT22;31162;51.076;3.784;2024-03-07T02:08:09;4.60;99.90
45409;DHT22;31162;51.076;3.784;2024-03-07T02:10:35;4.60;99.90
45409;DHT22;31162;51.076;3.784;2024-03-07T02:13:00;4.50;99.90
45409;DHT22;31162;51.076;3.784;2024-03-07T02:15:26;4.50;99.90
45409;DHT22;31162;51.076;3.784;2024-03-07T02:17:53;4.40;99.90
45409;DHT22;31162;51.076;3.784;2024-03-07T02:20:19;4.40;99.90
45409;DHT22;31162;51.076;3.784;2024-03-07T02:22:44;4.30;99.90
45409;DHT22;31162;51.076;3.784;2024-03-07T02:25:10;4.40;99.90
45409;DHT22;31162;51.076;3.784;2024-03-07T02:27:37;4.50;99.90
45409;DHT22;31162;51.076;3.784;2024-03-07T02:30:03;4.60;99.90
45409;DHT22;31162;51.076;3.784;2024-03-07T02:32:29;4.80;99.90
45409;DHT22;31162;51.076;3.784;2024-03-07T02:34:55;4.70;99.90
45409;DHT22;31162;51.076;3.784;2024-03-07T02:37:20;4.80;99.90
45409;DHT22;31162;51.076;3.784;2024-03-07T02:39:46;4.80;99.90
45409;DHT22;31162;51.076;3.784;2024-03-07T02:42:12;4.90;99.90
45409;DHT22;31162;51.076;3.784;2024-03-07T02:44:37;5.10;99.90
45409;DHT22;31162;51.076;3.784;2024-03-07T02:47:05;5.10;99.90
45409;DHT22;31162;51.076;3.784;2024-03-07T02:49:30;5.00;99.90
45409;DHT22;31162;51.076;3.784;2024-03-07T02:51:56;5.10;99.90
45409;DHT22;31162;51.076;3.784;2024-03-07T02:54:22;5.20;99.90
45409;DHT22;31162;51.076;3.784;2024-03-07T02:56:47;5.20;99.90
45409;DHT22;31162;51.076;3.784;2024-03-07T02:59:13;5.00;99.90
45409;DHT22;31162;51.076;3.784;2024-03-07T03:01:39;4.80;99.90
45409;DHT22;31162;51.076;3.784;2024-03-07T03:04:05;4.70;99.90
45409;DHT22;31162;51.076;3.784;2024-03-07T03:06:30;4.80;99.90
45409;DHT22;31162;51.076;3.784;2024-03-07T03:08:57;4.90;99.90
45409;DHT22;31162;51.076;3.784;2024-03-07T03:11:22;5.00;99.90
45409;DHT22;31162;51.076;3.784;2024-03-07T03:13:48;5.00;99.90
45409;DHT22;31162;51.076;3.784;2024-03-07T03:16:14;5.00;99.90
45409;DHT22;31162;51.076;3.784;2024-03-07T03:18:40;4.80;99.90
45409;DHT22;31162;51.076;3.784;2024-03-07T03:21:05;4.70;99.90
45409;DHT22;31162;51.076;3.784;2024-03-07T03:23:31;4.60;99.90
45409;DHT22;31162;51.076;3.784;2024-03-07T03:25:57;4.70;99.90
45409;DHT22;31162;51.076;3.784;2024-03-07T03:28:23;4.80;99.90
45409;DHT22;31162;51.076;3.784;2024-03-07T03:30:49;4.80;99.90
45409;DHT22;31162;51.076;3.784;2024-03-07T03:33:19;4.90;99.90
45409;DHT22;31162;51.076;3.784;2024-03-07T03:35:46;5.00;99.90
45409;DHT22;31162;51.076;3.784;2024-03-07T03:38:12;5.10;99.90
45409;DHT22;31162;51.076;3.784;2024-03-07T03:40:38;5.10;99.90
45409;DHT22;31162;51.076;3.784;2024-03-07T03:43:04;5.10;99.90
45409;DHT22;31162;51.076;3.784;2024-03-07T03:45:30;5.00;99.90
45409;DHT22;31162;51.076;3.784;2024-03-07T03:47:57;5.10;99.90
45409;DHT22;31162;51.076;3.784;2024-03-07T03:50:23;5.00;99.90
45409;DHT22;31162;51.076;3.784;2024-03-07T03:52:49;5.10;99.90
45409;DHT22;31162;51.076;3.784;2024-03-07T03:55:15;5.00;99.90
45409;DHT22;31162;51.076;3.784;2024-03-07T03:57:42;5.10;99.90
45409;DHT22;31162;51.076;3.784;2024-03-07T04:00:09;5.10;99.90
45409;DHT22;31162;51.076;3.784;2024-03-07T04:02:41;5.10;99.90
45409;DHT22;31162;51.076;3.784;2024-03-07T04:05:09;5.20;99.90
45409;DHT22;31162;51.076;3.784;2024-03-07T04:07:35;5.20;99.90
45409;DHT22;31162;51.076;3.784;2024-03-07T04:10:01;5.10;99.90
45409;DHT22;31162;51.076;3.784;2024-03-07T04:12:36;5.00;99.90
45409;DHT22;31162;51.076;3.784;2024-03-07T04:15:04;4.90;99.90
45409;DHT22;31162;51.076;3.784;2024-03-07T04:17:30;4.90;99.90
45409;DHT22;31162;51.076;3.784;2024-03-07T04:19:57;5.00;99.90
45409;DHT22;31162;51.076;3.784;2024-03-07T04:22:24;5.10;99.90
45409;DHT22;31162;51.076;3.784;2024-03-07T04:24:49;5.10;99.90
45409;DHT22;31162;51.076;3.784;2024-03-07T04:27:19;5.20;99.90
45409;DHT22;31162;51.076;3.784;2024-03-07T04:29:46;5.30;99.90
45409;DHT22;31162;51.076;3.784;2024-03-07T04:32:15;5.20;99.90
45409;DHT22;31162;51.076;3.784;2024-03-07T04:34:42;5.30;99.90
45409;DHT22;31162;51.076;3.784;2024-03-07T04:37:08;5.30;99.90
45409;DHT22;31162;51.076;3.784;2024-03-07T04:39:34;5.30;99.90
45409;DHT22;31162;51.076;3.784;2024-03-07T04:42:04;5.20;99.90
45409;DHT22;31162;51.076;3.784;2024-03-07T04:44:31;5.30;99.90
45409;DHT22;31162;51.076;3.784;2024-03-07T04:46:59;5.20;99.90
45409;DHT22;31162;51.076;3.784;2024-03-07T04:49:27;5.20;99.90
45409;DHT22;31162;51.076;3.784;2024-03-07T04:51:54;5.20;99.90
45409;DHT22;31162;51.076;3.784;2024-03-07T04:54:21;5.20;99.90
45409;DHT22;31162;51.076;3.784;2024-03-07T04:56:48;5.20;99.90
45409;DHT22;31162;51.076;3.784;2024-03-07T04:59:14;5.30;99.90
45409;DHT22;31162;51.076;3.784;2024-03-07T05:01:40;5.40;99.90
45409;DHT22;31162;51.076;3.784;2024-03-07T05:04:06;5.40;99.90
45409;DHT22;31162;51.076;3.784;2024-03-07T05:06:33;5.30;99.90
45409;DHT22;31162;51.076;3.784;2024-03-07T05:09:06;5.30;99.90
45409;DHT22;31162;51.076;3.784;2024-03-07T05:11:35;5.30;99.90
45409;DHT22;31162;51.076;3.784;2024-03-07T05:14:02;5.40;99.90
45409;DHT22;31162;51.076;3.784;2024-03-07T05:16:28;5.30;99.90
45409;DHT22;31162;51.076;3.784;2024-03-07T05:18:55;5.30;99.90
45409;DHT22;31162;51.076;3.784;2024-03-07T05:21:25;5.30;99.90
45409;DHT22;31162;51.076;3.784;2024-03-07T05:23:57;5.40;99.90
45409;DHT22;31162;51.076;3.784;2024-03-07T05:26:23;5.20;99.90
45409;DHT22;31162;51.076;3.784;2024-03-07T05:28:49;5.20;99.90
45409;DHT22;31162;51.076;3.784;2024-03-07T05:31:15;5.10;99.90
45409;DHT22;31162;51.076;3.784;2024-03-07T05:33:43;5.20;99.90
45409;DHT22;31162;51.076;3.784;2024-03-07T05:36:09;5.20;99.90
45409;DHT22;31162;51.076;3.784;2024-03-07T05:38:42;5.10;99.90
45409;DHT22;31162;51.076;3.784;2024-03-07T05:41:11;5.20;99.90
45409;DHT22;31162;51.076;3.784;2024-03-07T05:43:38;5.20;99.90
45409;DHT22;31162;51.076;3.784;2024-03-07T05:46:04;5.20;99.90
45409;DHT22;31162;51.076;3.784;2024-03-07T05:48:33;5.10;99.90
45409;DHT22;31162;51.076;3.784;2024-03-07T05:50:59;5.00;99.90
45409;DHT22;31162;51.076;3.784;2024-03-07T05:53:25;4.90;99.90
45409;DHT22;31162;51.076;3.784;2024-03-07T05:55:51;5.00;99.90
45409;DHT22;31162;51.076;3.784;2024-03-07T05:58:17;5.00;99.90
45409;DHT22;31162;51.076;3.784;2024-03-07T06:00:46;5.00;99.90
45409;DHT22;31162;51.076;3.784;2024-03-07T06:03:19;4.90;99.90
45409;DHT22;31162;51.076;3.784;2024-03-07T06:05:49;5.00;99.90
45409;DHT22;31162;51.076;3.784;2024-03-07T06:08:16;4.90;99.90
45409;DHT22;31162;51.076;3.784;2024-03-07T06:10:43;4.90;99.90
45409;DHT22;31162;51.076;3.784;2024-03-07T06:13:09;4.80;99.90
45409;DHT22;31162;51.076;3.784;2024-03-07T06:15:37;4.80;99.90
45409;DHT22;31162;51.076;3.784;2024-03-07T06:18:04;4.90;99.90
45409;DHT22;31162;51.076;3.784;2024-03-07T06:20:29;4.90;99.90
45409;DHT22;31162;51.076;3.784;2024-03-07T06:22:55;4.90;99.90
45409;DHT22;31162;51.076;3.784;2024-03-07T06:25:22;5.00;99.90
45409;DHT22;31162;51.076;3.784;2024-03-07T06:28:11;4.90;99.90
45409;DHT22;31162;51.076;3.784;2024-03-07T06:30:41;4.90;99.90
45409;DHT22;31162;51.076;3.784;2024-03-07T06:33:08;4.80;99.90
45409;DHT22;31162;51.076;3.784;2024-03-07T06:35:34;4.80;99.90
45409;DHT22;31162;51.076;3.784;2024-03-07T06:38:08;4.90;99.90
45409;DHT22;31162;51.076;3.784;2024-03-07T06:40:35;4.90;99.90
45409;DHT22;31162;51.076;3.784;2024-03-07T06:43:01;4.90;99.90
45409;DHT22;31162;51.076;3.784;2024-03-07T06:45:34;5.00;99.90
45409;DHT22;31162;51.076;3.784;2024-03-07T06:48:00;5.00;99.90
45409;DHT22;31162;51.076;3.784;2024-03-07T06:50:26;5.10;99.90
45409;DHT22;31162;51.076;3.784;2024-03-07T06:52:54;5.20;99.90
45409;DHT22;31162;51.076;3.784;2024-03-07T06:55:20;5.30;99.90
45409;DHT22;31162;51.076;3.784;2024-03-07T06:57:46;5.40;99.90
45409;DHT22;31162;51.076;3.784;2024-03-07T07:00:12;5.50;99.90
45409;DHT22;31162;51.076;3.784;2024-03-07T07:02:40;5.60;99.90
45409;DHT22;31162;51.076;3.784;2024-03-07T07:05:07;5.80;99.90
45409;DHT22;31162;51.076;3.784;2024-03-07T07:07:39;6.00;99.90
45409;DHT22;31162;51.076;3.784;2024-03-07T07:10:07;6.10;99.90
45409;DHT22;31162;51.076;3.784;2024-03-07T07:12:38;6.20;99.90
45409;DHT22;31162;51.076;3.784;2024-03-07T07:15:04;6.30;99.90
45409;DHT22;31162;51.076;3.784;2024-03-07T07:17:30;6.40;99.90
45409;DHT22;31162;51.076;3.784;2024-03-07T07:19:57;6.60;99.90
45409;DHT22;31162;51.076;3.784;2024-03-07T07:22:23;6.80;99.90
45409;DHT22;31162;51.076;3.784;2024-03-07T07:24:49;6.90;99.90
45409;DHT22;31162;51.076;3.784;2024-03-07T07:27:15;7.20;99.90
45409;DHT22;31162;51.076;3.784;2024-03-07T07:29:41;7.30;99.90
45409;DHT22;31162;51.076;3.784;2024-03-07T07:32:07;7.60;99.90
45409;DHT22;31162;51.076;3.784;2024-03-07T07:34:33;7.70;99.90
45409;DHT22;31162;51.076;3.784;2024-03-07T07:36:59;7.90;99.90
45409;DHT22;31162;51.076;3.784;2024-03-07T07:39:24;8.10;99.90
45409;DHT22;31162;51.076;3.784;2024-03-07T07:41:50;8.50;99.90
45409;DHT22;31162;51.076;3.784;2024-03-07T07:44:16;8.70;99.90
45409;DHT22;31162;51.076;3.784;2024-03-07T07:46:41;8.70;99.90
45409;DHT22;31162;51.076;3.784;2024-03-07T07:49:07;8.70;99.90
45409;DHT22;31162;51.076;3.784;2024-03-07T07:51:33;8.60;99.90
45409;DHT22;31162;51.076;3.784;2024-03-07T07:53:59;8.60;99.90
45409;DHT22;31162;51.076;3.784;2024-03-07T07:56:25;8.70;99.90
45409;DHT22;31162;51.076;3.784;2024-03-07T07:58:53;8.80;99.90
45409;DHT22;31162;51.076;3.784;2024-03-07T08:01:19;8.60;99.90
45409;DHT22;31162;51.076;3.784;2024-03-07T08:03:45;8.30;99.90
45409;DHT22;31162;51.076;3.784;2024-03-07T08:06:11;8.00;99.90
45409;DHT22;31162;51.076;3.784;2024-03-07T08:08:37;7.70;99.90
45409;DHT22;31162;51.076;3.784;2024-03-07T08:11:03;7.70;99.90
45409;DHT22;31162;51.076;3.784;2024-03-07T08:13:28;7.80;99.90
45409;DHT22;31162;51.076;3.784;2024-03-07T08:15:54;7.90;99.90
45409;DHT22;31162;51.076;3.784;2024-03-07T08:18:20;7.90;99.90
45409;DHT22;31162;51.076;3.784;2024-03-07T08:20:46;7.70;99.90
45409;DHT22;31162;51.076;3.784;2024-03-07T08:23:12;7.60;99.90
45409;DHT22;31162;51.076;3.784;2024-03-07T08:25:41;7.60;99.90
45409;DHT22;31162;51.076;3.784;2024-03-07T08:28:07;7.60;99.90
45409;DHT22;31162;51.076;3.784;2024-03-07T08:30:33;7.60;99.90
45409;DHT22;31162;51.076;3.784;2024-03-07T08:33:00;7.80;99.90
45409;DHT22;31162;51.076;3.784;2024-03-07T08:35:29;8.10;99.90
45409;DHT22;31162;51.076;3.784;2024-03-07T08:37:55;8.30;99.90
45409;DHT22;31162;51.076;3.784;2024-03-07T08:40:27;8.20;99.90
45409;DHT22;31162;51.076;3.784;2024-03-07T08:42:58;8.30;99.90
45409;DHT22;31162;51.076;3.784;2024-03-07T08:45:25;8.40;99.90
45409;DHT22;31162;51.076;3.784;2024-03-07T08:47:52;8.50;99.90
45409;DHT22;31162;51.076;3.784;2024-03-07T08:50:20;8.20;99.90
45409;DHT22;31162;51.076;3.784;2024-03-07T08:52:46;8.60;99.90
45409;DHT22;31162;51.076;3.784;2024-03-07T08:55:14;8.90;99.90
45409;DHT22;31162;51.076;3.784;2024-03-07T08:57:41;8.80;99.90
45409;DHT22;31162;51.076;3.784;2024-03-07T09:00:07;8.80;99.90
45409;DHT22;31162;51.076;3.784;2024-03-07T09:02:39;8.70;99.90
45409;DHT22;31162;51.076;3.784;2024-03-07T09:05:06;8.70;99.90
45409;DHT22;31162;51.076;3.784;2024-03-07T09:07:32;9.10;99.90
45409;DHT22;31162;51.076;3.784;2024-03-07T09:09:58;9.50;99.90
45409;DHT22;31162;51.076;3.784;2024-03-07T09:12:24;9.50;99.90
45409;DHT22;31162;51.076;3.784;2024-03-07T09:14:53;10.70;99.90
45409;DHT22;31162;51.076;3.784;2024-03-07T09:17:20;11.70;99.90
45409;DHT22;31162;51.076;3.784;2024-03-07T09:19:45;12.10;99.90
45409;DHT22;31162;51.076;3.784;2024-03-07T09:22:11;12.80;99.90
45409;DHT22;31162;51.076;3.784;2024-03-07T09:24:37;13.10;99.90
45409;DHT22;31162;51.076;3.784;2024-03-07T09:27:06;14.20;99.90
45409;DHT22;31162;51.076;3.784;2024-03-07T09:29:31;15.60;99.90
45409;DHT22;31162;51.076;3.784;2024-03-07T09:31:57;16.10;99.90
45409;DHT22;31162;51.076;3.784;2024-03-07T09:34:24;15.60;99.90
45409;DHT22;31162;51.076;3.784;2024-03-07T09:36:51;15.20;99.90
45409;DHT22;31162;51.076;3.784;2024-03-07T09:39:17;15.00;99.90
45409;DHT22;31162;51.076;3.784;2024-03-07T09:41:44;14.20;99.90
45409;DHT22;31162;51.076;3.784;2024-03-07T09:44:12;13.50;99.90
45409;DHT22;31162;51.076;3.784;2024-03-07T09:46:40;12.90;99.90
45409;DHT22;31162;51.076;3.784;2024-03-07T09:49:06;14.00;99.90
45409;DHT22;31162;51.076;3.784;2024-03-07T09:51:35;14.90;99.90
45409;DHT22;31162;51.076;3.784;2024-03-07T09:54:01;14.60;99.90
45409;DHT22;31162;51.076;3.784;2024-03-07T09:56:29;14.80;99.90
45409;DHT22;31162;51.076;3.784;2024-03-07T09:58:58;16.10;99.90
45409;DHT22;31162;51.076;3.784;2024-03-07T10:01:28;15.40;99.90
45409;DHT22;31162;51.076;3.784;2024-03-07T10:04:01;15.10;99.90
45409;DHT22;31162;51.076;3.784;2024-03-07T10:06:36;15.90;99.90
45409;DHT22;31162;51.076;3.784;2024-03-07T10:09:02;17.10;99.90
45409;DHT22;31162;51.076;3.784;2024-03-07T10:11:29;18.20;99.90
45409;DHT22;31162;51.076;3.784;2024-03-07T10:13:55;18.60;99.90
45409;DHT22;31162;51.076;3.784;2024-03-07T10:16:21;17.30;99.90
45409;DHT22;31162;51.076;3.784;2024-03-07T10:18:46;17.70;99.90
45409;DHT22;31162;51.076;3.784;2024-03-07T10:21:19;17.70;99.90
45409;DHT22;31162;51.076;3.784;2024-03-07T10:23:45;16.90;99.90
45409;DHT22;31162;51.076;3.784;2024-03-07T10:26:10;15.80;99.90
45409;DHT22;31162;51.076;3.784;2024-03-07T10:28:38;16.40;99.90
45409;DHT22;31162;51.076;3.784;2024-03-07T10:31:04;17.30;99.90
45409;DHT22;31162;51.076;3.784;2024-03-07T10:33:40;16.30;99.90
45409;DHT22;31162;51.076;3.784;2024-03-07T10:36:06;16.50;99.90
45409;DHT22;31162;51.076;3.784;2024-03-07T10:38:37;16.30;99.90
45409;DHT22;31162;51.076;3.784;2024-03-07T10:41:03;15.10;99.90
45409;DHT22;31162;51.076;3.784;2024-03-07T10:43:36;14.70;99.90
45409;DHT22;31162;51.076;3.784;2024-03-07T10:46:05;14.30;99.90
45409;DHT22;31162;51.076;3.784;2024-03-07T10:48:38;15.30;99.90
45409;DHT22;31162;51.076;3.784;2024-03-07T10:59:19;13.20;99.90
45409;DHT22;31162;51.076;3.784;2024-03-07T11:02:15;14.00;99.90
45409;DHT22;31162;51.076;3.784;2024-03-07T11:04:46;13.80;99.90
45409;DHT22;31162;51.076;3.784;2024-03-07T11:07:14;14.00;99.90
45409;DHT22;31162;51.076;3.784;2024-03-07T11:09:40;13.90;99.90
45409;DHT22;31162;51.076;3.784;2024-03-07T11:12:08;14.10;99.90
45409;DHT22;31162;51.076;3.784;2024-03-07T11:14:38;14.10;99.90
45409;DHT22;31162;51.076;3.784;2024-03-07T11:17:05;14.70;99.90
45409;DHT22;31162;51.076;3.784;2024-03-07T11:19:32;14.40;99.90
45409;DHT22;31162;51.076;3.784;2024-03-07T11:22:02;14.70;99.90
45409;DHT22;31162;51.076;3.784;2024-03-07T11:24:31;13.90;99.90
45409;DHT22;31162;51.076;3.784;2024-03-07T11:27:04;14.20;99.90
45409;DHT22;31162;51.076;3.784;2024-03-07T11:29:50;13.90;99.90
45409;DHT22;31162;51.076;3.784;2024-03-07T11:32:19;14.00;99.90
45409;DHT22;31162;51.076;3.784;2024-03-07T11:34:48;13.40;99.90
45409;DHT22;31162;51.076;3.784;2024-03-07T11:37:45;13.60;99.90
45409;DHT22;31162;51.076;3.784;2024-03-07T11:42:49;13.80;99.90
45409;DHT22;31162;51.076;3.784;2024-03-07T11:45:16;13.90;99.90
45409;DHT22;31162;51.076;3.784;2024-03-07T11:47:52;14.80;99.90
45409;DHT22;31162;51.076;3.784;2024-03-07T11:50:41;14.90;99.90
45409;DHT22;31162;51.076;3.784;2024-03-07T11:53:08;14.30;99.90
45409;DHT22;31162;51.076;3.784;2024-03-07T11:55:35;14.40;99.90
45409;DHT22;31162;51.076;3.784;2024-03-07T11:58:13;14.10;99.90
45409;DHT22;31162;51.076;3.784;2024-03-07T12:00:40;13.80;99.90
45409;DHT22;31162;51.076;3.784;2024-03-07T12:03:14;14.50;99.90
45409;DHT22;31162;51.076;3.784;2024-03-07T12:05:43;15.20;99.90
45409;DHT22;31162;51.076;3.784;2024-03-07T12:08:10;15.80;99.90
45409;DHT22;31162;51.076;3.784;2024-03-07T12:10:39;16.40;99.90
45409;DHT22;31162;51.076;3.784;2024-03-07T12:13:09;16.10;99.90
45409;DHT22;31162;51.076;3.784;2024-03-07T12:15:37;16.60;99.90
45409;DHT22;31162;51.076;3.784;2024-03-07T12:18:04;16.40;99.90
45409;DHT22;31162;51.076;3.784;2024-03-07T12:20:35;16.50;99.90
45409;DHT22;31162;51.076;3.784;2024-03-07T12:23:01;16.80;99.90
45409;DHT22;31162;51.076;3.784;2024-03-07T12:25:46;16.20;99.90
45409;DHT22;31162;51.076;3.784;2024-03-07T12:28:13;15.20;99.90
45409;DHT22;31162;51.076;3.784;2024-03-07T12:30:50;14.80;99.90
45409;DHT22;31162;51.076;3.784;2024-03-07T12:33:17;14.40;99.90
45409;DHT22;31162;51.076;3.784;2024-03-07T12:35:47;14.20;99.90
45409;DHT22;31162;51.076;3.784;2024-03-07T12:38:15;14.10;99.90
45409;DHT22;31162;51.076;3.784;2024-03-07T12:40:45;13.50;99.90
45409;DHT22;31162;51.076;3.784;2024-03-07T12:43:18;13.40;99.90
45409;DHT22;31162;51.076;3.784;2024-03-07T12:45:51;13.30;99.90
45409;DHT22;31162;51.076;3.784;2024-03-07T12:48:20;13.30;99.90
45409;DHT22;31162;51.076;3.784;2024-03-07T12:50:49;13.10;99.90
45409;DHT22;31162;51.076;3.784;2024-03-07T12:53:27;12.90;99.90
45409;DHT22;31162;51.076;3.784;2024-03-07T12:55:54;13.10;99.90
45409;DHT22;31162;51.076;3.784;2024-03-07T12:58:20;13.20;99.90
45409;DHT22;31162;51.076;3.784;2024-03-07T13:00:54;12.90;99.90
45409;DHT22;31162;51.076;3.784;2024-03-07T13:03:21;12.90;99.90
45409;DHT22;31162;51.076;3.784;2024-03-07T13:05:47;12.40;99.90
45409;DHT22;31162;51.076;3.784;2024-03-07T13:08:12;12.60;99.90
45409;DHT22;31162;51.076;3.784;2024-03-07T13:10:39;12.80;99.90
45409;DHT22;31162;51.076;3.784;2024-03-07T13:13:05;12.90;99.90
45409;DHT22;31162;51.076;3.784;2024-03-07T13:15:31;12.80;99.90
45409;DHT22;31162;51.076;3.784;2024-03-07T13:17:56;12.80;99.90
45409;DHT22;31162;51.076;3.784;2024-03-07T13:20:22;12.80;99.90
45409;DHT22;31162;51.076;3.784;2024-03-07T13:22:52;12.70;99.90
45409;DHT22;31162;51.076;3.784;2024-03-07T13:25:23;12.10;99.90
45409;DHT22;31162;51.076;3.784;2024-03-07T13:28:02;12.40;99.90
45409;DHT22;31162;51.076;3.784;2024-03-07T13:30:29;12.70;99.90
45409;DHT22;31162;51.076;3.784;2024-03-07T13:32:56;13.00;99.90
45409;DHT22;31162;51.076;3.784;2024-03-07T13:35:23;13.20;99.90
45409;DHT22;31162;51.076;3.784;2024-03-07T13:37:54;13.20;99.90
45409;DHT22;31162;51.076;3.784;2024-03-07T13:40:22;13.00;99.90
45409;DHT22;31162;51.076;3.784;2024-03-07T13:42:49;13.10;99.90
45409;DHT22;31162;51.076;3.784;2024-03-07T13:45:21;13.00;99.90
45409;DHT22;31162;51.076;3.784;2024-03-07T13:47:47;12.70;99.90
45409;DHT22;31162;51.076;3.784;2024-03-07T13:50:16;12.30;99.90
45409;DHT22;31162;51.076;3.784;2024-03-07T13:52:45;12.40;99.90
45409;DHT22;31162;51.076;3.784;2024-03-07T13:55:34;12.60;99.90
45409;DHT22;31162;51.076;3.784;2024-03-07T13:58:04;12.70;99.90
45409;DHT22;31162;51.076;3.784;2024-03-07T14:00:51;12.60;99.90
45409;DHT22;31162;51.076;3.784;2024-03-07T14:06:08;12.10;99.90
45409;DHT22;31162;51.076;3.784;2024-03-07T14:08:56;12.00;99.90
45409;DHT22;31162;51.076;3.784;2024-03-07T14:11:54;11.70;99.90
45409;DHT22;31162;51.076;3.784;2024-03-07T14:20:50;11.80;99.90
45409;DHT22;31162;51.076;3.784;2024-03-07T14:31:43;11.80;99.90
45409;DHT22;31162;51.076;3.784;2024-03-07T14:36:56;11.60;99.90
45409;DHT22;31162;51.076;3.784;2024-03-07T14:39:24;11.40;99.90
45409;DHT22;31162;51.076;3.784;2024-03-07T14:42:02;11.40;99.90
45409;DHT22;31162;51.076;3.784;2024-03-07T14:44:30;10.90;99.90
45409;DHT22;31162;51.076;3.784;2024-03-07T14:47:01;10.90;99.90
45409;DHT22;31162;51.076;3.784;2024-03-07T14:49:31;11.00;99.90
45409;DHT22;31162;51.076;3.784;2024-03-07T14:51:57;11.00;99.90
45409;DHT22;31162;51.076;3.784;2024-03-07T14:54:23;11.10;99.90
45409;DHT22;31162;51.076;3.784;2024-03-07T14:56:49;11.20;99.90
45409;DHT22;31162;51.076;3.784;2024-03-07T14:59:15;11.10;99.90
45409;DHT22;31162;51.076;3.784;2024-03-07T15:01:41;11.10;99.90
45409;DHT22;31162;51.076;3.784;2024-03-07T15:04:07;11.20;99.90
45409;DHT22;31162;51.076;3.784;2024-03-07T15:06:38;11.30;99.90
45409;DHT22;31162;51.076;3.784;2024-03-07T15:09:04;11.20;99.90
45409;DHT22;31162;51.076;3.784;2024-03-07T15:11:36;11.00;99.90
45409;DHT22;31162;51.076;3.784;2024-03-07T15:14:08;10.60;99.90
45409;DHT22;31162;51.076;3.784;2024-03-07T15:16:38;10.60;99.90
45409;DHT22;31162;51.076;3.784;2024-03-07T15:19:08;10.70;99.90
45409;DHT22;31162;51.076;3.784;2024-03-07T15:21:36;10.80;99.90
45409;DHT22;31162;51.076;3.784;2024-03-07T15:24:03;10.90;99.90
45409;DHT22;31162;51.076;3.784;2024-03-07T15:26:29;10.80;99.90
45409;DHT22;31162;51.076;3.784;2024-03-07T15:28:57;10.80;99.90
45409;DHT22;31162;51.076;3.784;2024-03-07T15:31:23;10.80;99.90
45409;DHT22;31162;51.076;3.784;2024-03-07T15:33:50;10.90;99.90
45409;DHT22;31162;51.076;3.784;2024-03-07T15:36:17;10.90;99.90
45409;DHT22;31162;51.076;3.784;2024-03-07T15:38:44;10.80;99.90
45409;DHT22;31162;51.076;3.784;2024-03-07T15:41:10;10.80;99.90
45409;DHT22;31162;51.076;3.784;2024-03-07T15:43:37;10.80;99.90
45409;DHT22;31162;51.076;3.784;2024-03-07T15:46:03;10.90;99.90
45409;DHT22;31162;51.076;3.784;2024-03-07T15:48:30;10.80;99.90
45409;DHT22;31162;51.076;3.784;2024-03-07T15:50:56;10.70;99.90
45409;DHT22;31162;51.076;3.784;2024-03-07T15:53:23;10.80;99.90
45409;DHT22;31162;51.076;3.784;2024-03-07T15:55:49;10.80;99.90
45409;DHT22;31162;51.076;3.784;2024-03-07T15:58:15;10.90;99.90
45409;DHT22;31162;51.076;3.784;2024-03-07T16:00:43;10.70;99.90
45409;DHT22;31162;51.076;3.784;2024-03-07T16:03:12;10.50;99.90
45409;DHT22;31162;51.076;3.784;2024-03-07T16:05:39;10.40;99.90
45409;DHT22;31162;51.076;3.784;2024-03-07T16:08:06;10.40;99.90
45409;DHT22;31162;51.076;3.784;2024-03-07T16:10:35;10.50;99.90
45409;DHT22;31162;51.076;3.784;2024-03-07T16:13:03;10.40;99.90
45409;DHT22;31162;51.076;3.784;2024-03-07T16:15:33;10.40;99.90